createdAt,value
2019-02-26T00:00:04.698Z,14.43
2019-02-26T00:02:08.375Z,9.60
2019-02-26T00:04:12.041Z,9.97
2019-02-26T00:06:16.762Z,10.50
2019-02-26T00:08:21.739Z,11.73
2019-02-26T00:10:27.230Z,14.70
2019-02-26T00:12:33.284Z,12.17
2019-02-26T00:14:37.274Z,9.77
2019-02-26T00:16:42.395Z,13.13
2019-02-26T00:18:46.551Z,22.30
2019-02-26T00:20:50.225Z,17.10
2019-02-26T00:22:55.329Z,18.07
2019-02-26T00:25:00.902Z,20.67
2019-02-26T00:27:05.488Z,21.47
2019-02-26T00:29:10.107Z,48.30
2019-02-26T00:31:13.761Z,73.50
2019-02-26T00:33:21.475Z,58.90
2019-02-26T00:35:23.580Z,37.50
2019-02-26T00:37:30.258Z,15.37
2019-02-26T00:39:33.630Z,25.33
2019-02-26T00:41:37.287Z,15.07
2019-02-26T00:43:40.963Z,10.03
2019-02-26T00:45:44.638Z,10.63
2019-02-26T00:47:48.318Z,9.03
2019-02-26T00:49:53.493Z,11.03
2019-02-26T00:51:57.204Z,9.40
2019-02-26T00:54:01.998Z,7.17
2019-02-26T00:56:08.024Z,11.10
2019-02-26T00:58:12.852Z,10.50
2019-02-26T01:00:17.286Z,8.93
2019-02-26T01:02:20.942Z,9.20
2019-02-26T01:04:24.626Z,8.97
2019-02-26T01:06:29.064Z,12.27
2019-02-26T01:08:35.590Z,8.97
2019-02-26T01:10:39.872Z,10.40
2019-02-26T01:12:44.563Z,9.43
2019-02-26T01:14:50.229Z,9.40
2019-02-26T01:16:53.731Z,8.23
2019-02-26T01:18:57.419Z,9.80
2019-02-26T01:21:02.528Z,8.17
2019-02-26T01:23:06.550Z,11.87
2019-02-26T01:25:12.672Z,11.30
2019-02-26T01:27:16.215Z,11.60
2019-02-26T01:29:20.821Z,13.00
2019-02-26T01:31:26.913Z,11.30
2019-02-26T01:33:32.155Z,9.03
2019-02-26T01:35:37.784Z,9.43
2019-02-26T01:37:41.606Z,7.43
2019-02-26T01:39:47.071Z,7.50
2019-02-26T01:41:53.308Z,8.20
2019-02-26T01:43:56.031Z,9.90
2019-02-26T01:45:59.713Z,8.60
2019-02-26T01:48:04.071Z,9.80
2019-02-26T01:50:13.219Z,8.30
2019-02-26T01:52:17.458Z,9.87
2019-02-26T01:54:21.382Z,8.90
2019-02-26T01:56:25.038Z,11.43
2019-02-26T01:58:28.694Z,11.03
2019-02-26T02:00:32.483Z,9.23
2019-02-26T02:02:36.182Z,7.37
2019-02-26T02:04:41.207Z,8.27
2019-02-26T02:06:45.335Z,8.60
2019-02-26T02:08:50.696Z,7.07
2019-02-26T02:10:57.117Z,7.13
2019-02-26T02:13:02.304Z,7.63
2019-02-26T02:15:10.051Z,7.20
2019-02-26T02:17:13.899Z,6.23
2019-02-26T02:19:20.046Z,9.17
2019-02-26T02:21:24.129Z,8.67
2019-02-26T02:23:30.250Z,6.93
2019-02-26T02:25:35.686Z,7.63
2019-02-26T02:27:39.191Z,8.77
2019-02-26T02:29:45.700Z,6.90
2019-02-26T02:31:48.363Z,7.63
2019-02-26T02:33:52.018Z,6.80
2019-02-26T02:35:55.667Z,7.50
2019-02-26T02:38:01.689Z,8.27
2019-02-26T02:40:07.171Z,7.60
2019-02-26T02:42:13.340Z,8.73
2019-02-26T02:44:17.965Z,10.07
2019-02-26T02:46:21.620Z,11.80
2019-02-26T02:48:25.332Z,6.80
2019-02-26T02:50:29.019Z,6.67
2019-02-26T02:52:35.138Z,7.60
2019-02-26T02:54:38.563Z,9.00
2019-02-26T02:56:44.345Z,6.63
2019-02-26T02:58:49.501Z,7.70
2019-02-26T03:00:54.239Z,7.33
2019-02-26T03:02:58.927Z,6.87
2019-02-26T03:05:02.575Z,8.03
2019-02-26T03:07:06.267Z,8.63
2019-02-26T03:09:15.208Z,6.47
2019-02-26T03:11:19.478Z,10.30
2019-02-26T03:13:25.433Z,10.73
2019-02-26T03:15:30.010Z,10.97
2019-02-26T03:17:33.994Z,9.67
2019-02-26T03:19:40.698Z,10.20
2019-02-26T03:21:45.390Z,7.33
2019-02-26T03:23:48.511Z,12.37
2019-02-26T03:25:52.962Z,11.07
2019-02-26T03:27:57.586Z,7.77
2019-02-26T03:30:02.061Z,12.50
2019-02-26T03:32:05.968Z,8.60
2019-02-26T03:34:14.673Z,20.30
2019-02-26T03:36:16.662Z,9.43
2019-02-26T03:38:21.145Z,8.97
2019-02-26T03:40:27.033Z,9.83
2019-02-26T03:42:33.252Z,10.37
2019-02-26T03:44:36.673Z,11.60
2019-02-26T03:46:40.330Z,8.07
2019-02-26T03:48:44.043Z,9.27
2019-02-26T03:50:48.467Z,7.47
2019-02-26T03:52:52.144Z,10.17
2019-02-26T03:54:55.924Z,6.93
2019-02-26T03:56:59.873Z,8.43
2019-02-26T03:59:06.253Z,7.23
2019-02-26T04:01:10.929Z,7.60
2019-02-26T04:03:16.778Z,9.60
2019-02-26T04:05:19.845Z,7.17
2019-02-26T04:07:25.994Z,7.70
2019-02-26T04:09:28.972Z,9.00
2019-02-26T04:11:32.659Z,8.97
2019-02-26T04:13:36.310Z,9.13
2019-02-26T04:15:40.184Z,8.93
2019-02-26T04:17:43.879Z,7.70
2019-02-26T04:19:49.010Z,11.93
2019-02-26T04:22:26.608Z,8.00
2019-02-26T04:24:33.371Z,9.00
2019-02-26T04:26:57.035Z,9.13
2019-02-26T04:29:03.645Z,8.90
2019-02-26T04:31:28.254Z,8.37
2019-02-26T04:33:41.373Z,11.30
2019-02-26T04:35:57.243Z,9.03
2019-02-26T04:38:23.376Z,8.20
2019-02-26T04:40:35.754Z,9.50
2019-02-26T04:43:13.637Z,10.43
2019-02-26T04:45:25.973Z,13.17
2019-02-26T04:47:48.216Z,10.17
2019-02-26T04:49:50.265Z,11.83
2019-02-26T04:51:53.990Z,12.37
2019-02-26T04:53:59.485Z,9.80
2019-02-26T04:56:05.947Z,12.80
2019-02-26T04:58:10.730Z,11.87
2019-02-26T05:00:14.154Z,10.73
2019-02-26T05:02:17.850Z,10.70
2019-02-26T05:04:21.510Z,10.67
2019-02-26T05:06:25.215Z,13.93
2019-02-26T05:08:29.432Z,15.37
2019-02-26T05:10:34.420Z,14.33
2019-02-26T05:12:40.181Z,11.97
2019-02-26T05:14:43.593Z,11.53
2019-02-26T05:16:47.264Z,15.20
2019-02-26T05:18:51.757Z,17.50
2019-02-26T05:20:56.442Z,12.90
2019-02-26T05:23:01.005Z,11.20
2019-02-26T05:25:10.381Z,16.77
2019-02-26T05:27:15.668Z,16.70
2019-02-26T05:29:19.769Z,16.57
2019-02-26T05:31:23.418Z,12.00
2019-02-26T05:33:27.668Z,12.30
2019-02-26T05:35:32.514Z,10.97
2019-02-26T05:37:38.214Z,11.77
2019-02-26T05:39:43.198Z,13.10
2019-02-26T05:41:47.064Z,11.37
2019-02-26T05:43:55.259Z,12.70
2019-02-26T05:45:59.935Z,9.20
2019-02-26T05:48:02.045Z,18.13
2019-02-26T05:50:12.971Z,11.87
2019-02-26T05:52:13.141Z,12.33
2019-02-26T05:54:20.846Z,15.47
2019-02-26T05:56:22.889Z,11.23
2019-02-26T05:58:26.741Z,14.13
2019-02-26T06:00:33.145Z,14.43
2019-02-26T06:02:38.825Z,12.17
2019-02-26T06:04:43.885Z,13.60
2019-02-26T06:06:50.290Z,11.80
2019-02-26T06:08:54.375Z,13.27
2019-02-26T06:10:57.477Z,13.23
2019-02-26T06:13:02.202Z,15.37
2019-02-26T06:15:08.006Z,12.37
2019-02-26T06:17:13.165Z,12.47
2019-02-26T06:19:19.181Z,11.83
2019-02-26T06:21:23.607Z,10.93
2019-02-26T06:23:31.210Z,17.60
2019-02-26T06:25:33.651Z,12.83
2019-02-26T06:27:37.314Z,15.57
2019-02-26T06:29:41.079Z,13.93
2019-02-26T06:31:46.824Z,10.77
2019-02-26T06:33:50.709Z,14.20
2019-02-26T06:35:55.300Z,18.90
2019-02-26T06:38:01.983Z,10.93
2019-02-26T06:40:08.302Z,13.53
2019-02-26T06:42:12.665Z,16.13
2019-02-26T06:44:17.363Z,13.80
2019-02-26T06:46:21.130Z,15.50
2019-02-26T06:48:26.896Z,15.40
2019-02-26T06:50:31.810Z,15.53
2019-02-26T06:52:38.173Z,16.13
2019-02-26T06:54:40.936Z,12.57
2019-02-26T06:56:46.212Z,13.73
2019-02-26T06:58:50.022Z,15.77
2019-02-26T07:00:55.433Z,13.90
2019-02-26T07:03:00.128Z,12.43
2019-02-26T07:05:06.650Z,16.57
2019-02-26T07:07:14.156Z,16.67
2019-02-26T07:09:17.778Z,16.57
2019-02-26T07:11:21.162Z,18.03
2019-02-26T07:13:24.823Z,20.03
2019-02-26T07:15:29.338Z,18.30
2019-02-26T07:17:34.334Z,15.37
2019-02-26T07:19:38.551Z,13.20
2019-02-26T07:21:42.855Z,13.93
2019-02-26T07:23:47.708Z,19.67
2019-02-26T07:25:51.406Z,16.13
2019-02-26T07:27:56.324Z,14.60
2019-02-26T07:30:00.518Z,19.17
2019-02-26T07:32:04.215Z,15.10
2019-02-26T07:34:08.149Z,29.37
2019-02-26T07:36:11.839Z,20.93
2019-02-26T07:38:16.228Z,18.93
2019-02-26T07:40:21.182Z,18.77
2019-02-26T07:42:24.897Z,16.77
2019-02-26T07:44:28.565Z,18.30
2019-02-26T07:46:33.717Z,20.77
2019-02-26T07:48:37.722Z,18.50
2019-02-26T07:50:44.103Z,17.37
2019-02-26T07:52:47.459Z,23.47
2019-02-26T07:54:52.235Z,20.90
2019-02-26T07:56:57.615Z,22.17
2019-02-26T07:59:04.242Z,17.73
2019-02-26T08:01:06.733Z,19.30
2019-02-26T08:03:10.561Z,20.40
2019-02-26T08:05:16.150Z,17.67
2019-02-26T08:07:21.520Z,20.20
2019-02-26T08:09:25.056Z,16.50
2019-02-26T08:11:28.717Z,18.30
2019-02-26T08:13:34.099Z,19.60
2019-02-26T08:15:39.802Z,17.43
2019-02-26T08:17:45.663Z,15.47
2019-02-26T08:19:49.331Z,14.60
2019-02-26T08:21:54.872Z,12.77
2019-02-26T08:23:58.632Z,14.87
2019-02-26T08:26:02.355Z,16.77
2019-02-26T08:28:06.046Z,12.73
2019-02-26T08:30:14.499Z,19.17
2019-02-26T08:32:20.487Z,14.63
2019-02-26T08:34:23.321Z,19.30
2019-02-26T08:36:26.987Z,17.87
2019-02-26T08:38:30.652Z,20.73
2019-02-26T08:40:34.350Z,17.07
2019-02-26T08:42:38.008Z,20.70
2019-02-26T08:44:41.692Z,19.23
2019-02-26T08:46:46.636Z,21.20
2019-02-26T08:48:50.906Z,12.93
2019-02-26T08:50:55.833Z,20.67
2019-02-26T08:52:59.696Z,18.80
2019-02-26T08:55:03.381Z,20.17
2019-02-26T08:57:07.043Z,19.23
2019-02-26T08:59:10.733Z,16.40
2019-02-26T09:01:14.408Z,18.00
2019-02-26T09:03:20.394Z,21.30
2019-02-26T09:05:25.851Z,18.90
2019-02-26T09:07:28.914Z,20.77
2019-02-26T09:09:32.878Z,18.60
2019-02-26T09:11:38.691Z,18.07
2019-02-26T09:13:43.892Z,20.23
2019-02-26T09:15:47.979Z,16.60
2019-02-26T09:17:51.642Z,16.37
2019-02-26T09:20:06.432Z,17.13
2019-02-26T09:22:00.732Z,16.97
2019-02-26T09:24:07.499Z,18.37
2019-02-26T09:26:10.314Z,18.90
2019-02-26T09:28:14.000Z,26.73
2019-02-26T09:30:19.336Z,18.37
2019-02-26T09:32:23.195Z,16.77
2019-02-26T09:34:29.305Z,18.53
2019-02-26T09:36:32.413Z,19.77
2019-02-26T09:38:36.107Z,25.37
2019-02-26T09:40:39.772Z,25.33
2019-02-26T09:42:44.388Z,28.83
2019-02-26T09:44:50.642Z,23.97
2019-02-26T09:46:55.269Z,22.57
2019-02-26T09:49:00.970Z,18.77
2019-02-26T09:51:07.600Z,19.17
2019-02-26T09:53:10.867Z,24.37
2019-02-26T09:55:16.441Z,25.33
2019-02-26T09:57:22.849Z,20.30
2019-02-26T09:59:26.547Z,21.00
2019-02-26T10:01:33.149Z,17.90
2019-02-26T10:03:38.958Z,20.33
2019-02-26T10:05:41.962Z,19.97
2019-02-26T10:07:45.657Z,21.07
2019-02-26T10:09:49.550Z,16.43
2019-02-26T10:11:53.220Z,15.87
2019-02-26T10:13:56.923Z,12.43
2019-02-26T10:16:02.037Z,11.57
2019-02-26T10:18:07.227Z,13.33
2019-02-26T10:20:13.658Z,15.80
2019-02-26T10:22:17.393Z,12.83
2019-02-26T10:24:23.103Z,13.20
2019-02-26T10:26:30.553Z,14.60
2019-02-26T10:28:35.175Z,14.20
2019-02-26T10:30:41.036Z,13.10
2019-02-26T10:32:44.055Z,12.73
2019-02-26T10:34:48.460Z,15.37
2019-02-26T10:36:52.128Z,11.10
2019-02-26T10:38:57.787Z,11.63
2019-02-26T10:41:01.825Z,14.27
2019-02-26T10:43:05.772Z,11.17
2019-02-26T10:45:11.565Z,11.27
2019-02-26T10:47:15.235Z,9.03
2019-02-26T10:49:18.934Z,7.53
2019-02-26T10:51:26.024Z,12.67
2019-02-26T10:53:28.014Z,8.17
2019-02-26T10:55:38.342Z,7.20
2019-02-26T10:57:38.472Z,7.93
2019-02-26T10:59:44.939Z,9.77
2019-02-26T11:01:51.606Z,8.63
2019-02-26T11:03:55.180Z,7.33
2019-02-26T11:05:59.051Z,9.73
2019-02-26T11:08:06.541Z,15.23
2019-02-26T11:10:11.965Z,8.10
2019-02-26T11:12:15.337Z,11.03
2019-02-26T11:14:19.504Z,8.90
2019-02-26T11:16:25.320Z,10.47
2019-02-26T11:18:29.554Z,11.00
2019-02-26T11:20:34.257Z,10.03
2019-02-26T11:22:41.635Z,10.73
2019-02-26T11:24:43.471Z,8.90
2019-02-26T11:26:47.294Z,10.27
2019-02-26T11:28:50.971Z,6.90
2019-02-26T11:30:56.561Z,8.20
2019-02-26T11:33:04.803Z,9.17
2019-02-26T11:35:08.683Z,8.90
2019-02-26T11:37:12.357Z,11.70
2019-02-26T11:39:16.642Z,7.50
2019-02-26T11:41:20.395Z,7.30
2019-02-26T11:43:26.880Z,6.90
2019-02-26T11:45:29.433Z,6.83
2019-02-26T11:47:36.358Z,8.30
2019-02-26T11:49:39.430Z,6.60
2019-02-26T11:51:43.942Z,8.27
2019-02-26T11:53:47.645Z,8.27
2019-02-26T11:55:52.699Z,6.80
2019-02-26T11:57:56.828Z,7.37
2019-02-26T12:00:01.858Z,8.80
2019-02-26T12:02:06.533Z,8.10
2019-02-26T12:04:11.368Z,8.17
2019-02-26T12:06:15.627Z,9.13
2019-02-26T12:08:22.164Z,7.57
2019-02-26T12:10:27.091Z,13.17
2019-02-26T12:12:31.138Z,8.13
2019-02-26T12:14:37.963Z,10.67
2019-02-26T12:16:40.913Z,9.43
2019-02-26T12:18:46.880Z,8.67
2019-02-26T12:20:50.008Z,7.93
2019-02-26T12:22:55.465Z,9.87
2019-02-26T12:25:01.825Z,10.23
2019-02-26T12:27:04.503Z,6.97
2019-02-26T12:29:08.238Z,8.93
2019-02-26T12:31:12.938Z,7.20
2019-02-26T12:33:16.801Z,8.77
2019-02-26T12:35:20.722Z,6.97
2019-02-26T12:37:24.391Z,6.93
2019-02-26T12:39:31.225Z,7.37
2019-02-26T12:41:36.609Z,7.70
2019-02-26T12:43:42.674Z,10.43
2019-02-26T12:45:44.406Z,8.13
2019-02-26T12:47:49.374Z,7.23
2019-02-26T12:49:53.659Z,9.23
2019-02-26T12:51:59.676Z,7.57
2019-02-26T12:54:03.509Z,10.40
2019-02-26T12:56:09.734Z,10.53
2019-02-26T12:58:15.199Z,59.20
2019-02-26T13:00:24.608Z,9.47
2019-02-26T13:02:28.313Z,10.80
2019-02-26T13:04:32.035Z,8.70
2019-02-26T13:06:38.281Z,9.03
2019-02-26T13:08:42.706Z,8.03
2019-02-26T13:10:50.342Z,5.97
2019-02-26T13:12:55.195Z,9.07
2019-02-26T13:15:03.200Z,9.23
2019-02-26T13:17:02.850Z,11.10
2019-02-26T13:19:06.632Z,7.73
2019-02-26T13:21:13.454Z,7.97
2019-02-26T13:25:22.577Z,9.13
2019-02-26T13:27:26.530Z,9.60
2019-02-26T13:29:31.350Z,12.37
2019-02-26T13:31:41.739Z,10.50
2019-02-26T13:33:42.021Z,31.27
2019-02-26T13:35:50.720Z,25.70
2019-02-26T13:37:53.619Z,25.67
2019-02-26T13:39:57.342Z,8.10
2019-02-26T13:42:09.139Z,13.70
2019-02-26T13:44:07.939Z,13.23
2019-02-26T13:46:11.929Z,15.03
2019-02-26T13:48:15.632Z,11.53
2019-02-26T13:50:27.210Z,5.97
2019-02-26T13:52:30.928Z,8.37
2019-02-26T13:54:35.917Z,10.57
2019-02-26T13:56:39.588Z,9.40
2019-02-26T13:58:43.323Z,8.67
2019-02-26T14:00:46.987Z,8.17
2019-02-26T14:02:50.961Z,8.23
2019-02-26T14:04:54.637Z,6.70
2019-02-26T14:06:58.328Z,8.43
2019-02-26T14:09:02.028Z,9.80
2019-02-26T14:11:05.708Z,8.27
2019-02-26T14:13:09.475Z,9.40
2019-02-26T14:15:18.847Z,8.13
2019-02-26T14:17:22.509Z,11.03
2019-02-26T14:19:26.201Z,7.27
2019-02-26T14:21:29.856Z,8.00
2019-02-26T14:23:35.061Z,8.77
2019-02-26T14:25:38.913Z,5.90
2019-02-26T14:27:42.723Z,6.77
2019-02-26T14:29:46.959Z,7.10
2019-02-26T14:31:50.719Z,3.90
2019-02-26T14:33:54.435Z,7.37
2019-02-26T14:35:58.155Z,11.23
2019-02-26T14:38:01.828Z,8.33
2019-02-26T14:40:08.540Z,6.67
2019-02-26T14:42:12.369Z,7.57
2019-02-26T14:44:16.198Z,8.03
2019-02-26T14:46:19.966Z,8.50
2019-02-26T14:48:23.651Z,8.30
2019-02-26T14:50:27.443Z,8.37
2019-02-26T14:52:31.107Z,7.53
2019-02-26T14:54:34.991Z,10.43
2019-02-26T14:56:38.664Z,10.23
2019-02-26T14:58:42.319Z,9.13
2019-02-26T15:00:54.970Z,11.57
2019-02-26T15:02:51.843Z,9.77
2019-02-26T15:04:57.057Z,11.17
2019-02-26T15:07:00.920Z,7.10
2019-02-26T15:09:05.584Z,7.53
2019-02-26T15:11:09.403Z,7.83
2019-02-26T15:13:13.078Z,8.33
2019-02-26T15:15:17.688Z,6.47
2019-02-26T15:17:21.353Z,6.87
2019-02-26T15:19:25.029Z,5.80
2019-02-26T15:21:29.115Z,7.40
2019-02-26T15:23:32.869Z,8.83
2019-02-26T15:25:36.615Z,6.37
2019-02-26T15:27:40.348Z,5.87
2019-02-26T15:29:44.020Z,7.60
2019-02-26T15:31:47.707Z,9.10
2019-02-26T15:33:51.665Z,11.10
2019-02-26T15:35:55.377Z,10.97
2019-02-26T15:37:59.212Z,8.73
2019-02-26T15:40:02.878Z,8.47
2019-02-26T15:42:06.583Z,11.17
2019-02-26T15:44:11.903Z,6.90
2019-02-26T15:46:15.759Z,5.70
2019-02-26T15:48:19.442Z,6.33
2019-02-26T15:50:23.119Z,6.87
2019-02-26T15:52:26.808Z,5.77
2019-02-26T15:54:30.593Z,4.63
2019-02-26T15:56:34.295Z,9.40
2019-02-26T15:58:38.333Z,3.17
2019-02-26T16:00:42.102Z,4.30
2019-02-26T16:02:46.196Z,5.27
2019-02-26T16:04:49.865Z,14.43
2019-02-26T16:06:53.600Z,6.53
2019-02-26T16:08:57.303Z,6.77
2019-02-26T16:11:00.977Z,10.80
2019-02-26T16:13:04.668Z,5.93
2019-02-26T16:15:15.179Z,7.03
2019-02-26T16:17:18.857Z,5.67
2019-02-26T16:19:22.602Z,7.93
2019-02-26T16:21:26.349Z,6.10
2019-02-26T16:23:30.220Z,7.50
2019-02-26T16:25:33.891Z,12.37
2019-02-26T16:27:37.946Z,6.33
2019-02-26T16:29:41.911Z,5.70
2019-02-26T16:31:45.585Z,12.77
2019-02-26T16:33:49.269Z,8.07
2019-02-26T16:35:53.220Z,8.70
2019-02-26T16:37:56.888Z,8.90
2019-02-26T16:40:00.584Z,7.70
2019-02-26T16:42:04.245Z,9.10
2019-02-26T16:44:07.949Z,9.50
2019-02-26T16:46:11.669Z,6.63
2019-02-26T16:48:15.345Z,6.70
2019-02-26T16:50:25.915Z,4.93
2019-02-26T16:52:29.632Z,6.43
2019-02-26T16:54:33.327Z,7.20
2019-02-26T16:56:37.079Z,16.13
2019-02-26T16:58:40.747Z,10.53
2019-02-26T17:00:46.548Z,8.67
2019-02-26T17:02:50.108Z,7.87
2019-02-26T17:04:53.804Z,9.00
2019-02-26T17:06:57.466Z,10.93
2019-02-26T17:09:01.152Z,21.10
2019-02-26T17:11:04.902Z,11.10
2019-02-26T17:13:08.852Z,11.73
2019-02-26T17:15:18.315Z,11.13
2019-02-26T17:17:22.015Z,9.80
2019-02-26T17:19:25.670Z,16.47
2019-02-26T17:21:30.772Z,14.50
2019-02-26T17:23:34.935Z,11.03
2019-02-26T17:25:38.966Z,10.03
2019-02-26T17:27:42.641Z,10.70
2019-02-26T17:29:49.407Z,18.40
2019-02-26T17:31:52.772Z,15.30
2019-02-26T17:33:56.562Z,21.17
2019-02-26T17:36:02.027Z,17.67
2019-02-26T17:38:05.750Z,21.03
2019-02-26T17:40:20.394Z,21.40
2019-02-26T17:42:24.065Z,23.83
2019-02-26T17:44:27.895Z,25.27
2019-02-26T17:46:31.587Z,29.50
2019-02-26T17:48:43.258Z,21.43
2019-02-26T17:50:43.303Z,20.20
2019-02-26T17:52:46.979Z,37.97
2019-02-26T17:54:50.642Z,40.13
2019-02-26T17:56:54.352Z,25.47
2019-02-26T17:58:58.013Z,36.83
2019-02-26T18:01:01.833Z,48.93
2019-02-26T18:03:07.249Z,44.20
2019-02-26T18:05:10.950Z,40.97
2019-02-26T18:07:14.648Z,46.23
2019-02-26T18:09:18.459Z,54.03
2019-02-26T18:11:23.710Z,67.47
2019-02-26T18:13:27.743Z,68.90
2019-02-26T18:15:31.407Z,62.50
2019-02-26T18:17:35.079Z,60.10
2019-02-26T18:19:38.782Z,60.03
2019-02-26T18:21:43.622Z,45.70
2019-02-26T18:23:47.720Z,30.00
2019-02-26T18:25:51.424Z,33.77
2019-02-26T18:27:55.239Z,41.53
2019-02-26T18:29:58.952Z,26.27
2019-02-26T18:32:02.620Z,20.20
2019-02-26T18:34:06.329Z,28.70
2019-02-26T18:36:10.029Z,37.87
2019-02-26T18:38:13.756Z,41.93
2019-02-26T18:40:18.053Z,32.73
2019-02-26T18:42:21.782Z,51.93
2019-02-26T18:44:25.491Z,52.67
2019-02-26T18:46:34.212Z,42.53
2019-02-26T18:48:38.409Z,46.80
2019-02-26T18:50:42.115Z,45.23
2019-02-26T18:52:45.793Z,52.47
2019-02-26T18:54:51.777Z,45.13
2019-02-26T18:56:54.879Z,26.80
2019-02-26T18:58:58.684Z,23.03
2019-02-26T19:01:02.351Z,50.33
2019-02-26T19:03:08.671Z,31.90
2019-02-26T19:05:13.257Z,33.80
2019-02-26T19:07:16.919Z,28.03
2019-02-26T19:09:20.640Z,28.53
2019-02-26T19:11:25.642Z,22.73
2019-02-26T19:13:29.746Z,42.77
2019-02-26T19:15:34.846Z,34.43
2019-02-26T19:17:38.538Z,40.20
2019-02-26T19:19:42.588Z,25.87
2019-02-26T19:21:46.424Z,33.00
2019-02-26T19:23:50.082Z,14.40
2019-02-26T19:25:53.799Z,23.40
2019-02-26T19:27:57.474Z,13.90
2019-02-26T19:30:03.901Z,15.03
2019-02-26T19:32:06.624Z,17.73
2019-02-26T19:34:10.351Z,11.30
2019-02-26T19:36:14.038Z,13.37
2019-02-26T19:38:17.743Z,14.20
2019-02-26T19:40:24.393Z,11.27
2019-02-26T19:42:28.195Z,11.50
2019-02-26T19:44:35.726Z,6.97
2019-02-26T19:46:37.299Z,10.80
2019-02-26T19:48:40.964Z,8.43
2019-02-26T19:50:47.852Z,6.17
2019-02-26T19:52:56.674Z,9.17
2019-02-26T19:54:55.623Z,10.60
2019-02-26T19:56:59.326Z,9.50
2019-02-26T19:59:02.992Z,11.37
2019-02-26T20:01:06.733Z,10.37
2019-02-26T20:03:10.525Z,12.60
2019-02-26T20:05:15.087Z,8.10
2019-02-26T20:07:18.908Z,10.30
2019-02-26T20:09:22.679Z,9.40
2019-02-26T20:11:26.381Z,10.37
2019-02-26T20:13:31.714Z,9.83
2019-02-26T20:15:35.560Z,9.97
2019-02-26T20:17:39.249Z,9.30
2019-02-26T20:19:42.895Z,14.20
2019-02-26T20:21:46.737Z,11.73
2019-02-26T20:23:50.498Z,8.03
2019-02-26T20:25:54.286Z,6.17
2019-02-26T20:28:05.022Z,7.50
2019-02-26T20:30:04.602Z,7.90
2019-02-26T20:32:08.270Z,11.33
2019-02-26T20:34:11.987Z,13.57
2019-02-26T20:36:17.620Z,23.03
2019-02-26T20:38:21.193Z,13.10
2019-02-26T20:40:25.365Z,12.30
2019-02-26T20:42:29.541Z,16.83
2019-02-26T20:44:33.318Z,13.67
2019-02-26T20:46:36.971Z,13.67
2019-02-26T20:48:40.655Z,15.07
2019-02-26T20:50:44.343Z,17.23
2019-02-26T20:52:48.043Z,21.73
2019-02-26T20:54:51.757Z,11.57
2019-02-26T20:56:55.520Z,31.73
2019-02-26T20:58:59.392Z,28.90
2019-02-26T21:01:03.108Z,25.00
2019-02-26T21:03:08.062Z,14.10
2019-02-26T21:05:12.675Z,12.10
2019-02-26T21:07:16.352Z,13.63
2019-02-26T21:09:20.145Z,11.87
2019-02-26T21:11:23.824Z,19.27
2019-02-26T21:13:27.555Z,13.50
2019-02-26T21:15:31.285Z,10.53
2019-02-26T21:17:34.943Z,9.90
2019-02-26T21:19:38.650Z,9.60
2019-02-26T21:21:42.351Z,11.40
2019-02-26T21:23:46.019Z,9.60
2019-02-26T21:25:49.719Z,9.77
2019-02-26T21:27:53.416Z,7.23
2019-02-26T21:29:57.128Z,7.13
2019-02-26T21:32:00.930Z,9.57
2019-02-26T21:34:04.716Z,7.10
2019-02-26T21:36:08.406Z,6.47
2019-02-26T21:38:13.165Z,15.30
2019-02-26T21:40:17.169Z,14.70
2019-02-26T21:42:21.099Z,20.37
2019-02-26T21:44:24.798Z,21.07
2019-02-26T21:46:28.480Z,22.93
2019-02-26T21:48:32.195Z,22.00
2019-02-26T21:50:35.899Z,22.30
2019-02-26T21:52:41.820Z,19.90
2019-02-26T21:54:45.365Z,14.97
2019-02-26T21:56:49.527Z,14.20
2019-02-26T21:58:53.421Z,11.77
2019-02-26T22:00:57.211Z,18.17
2019-02-26T22:03:00.883Z,22.80
2019-02-26T22:05:05.932Z,19.53
2019-02-26T22:07:09.926Z,18.53
2019-02-26T22:09:13.604Z,17.53
2019-02-26T22:11:18.615Z,16.93
2019-02-26T22:13:22.711Z,14.90
2019-02-26T22:15:26.370Z,9.37
2019-02-26T22:17:30.053Z,10.80
2019-02-26T22:19:33.724Z,10.07
2019-02-26T22:21:37.404Z,7.33
2019-02-26T22:23:41.100Z,6.20
2019-02-26T22:25:44.790Z,6.10
2019-02-26T22:27:48.482Z,8.57
2019-02-26T22:29:52.156Z,7.07
2019-02-26T22:31:55.861Z,6.90
2019-02-26T22:34:01.026Z,5.93
2019-02-26T22:36:04.696Z,5.50
2019-02-26T22:38:08.391Z,6.60
2019-02-26T22:40:15.160Z,5.97
2019-02-26T22:42:18.984Z,5.87
2019-02-26T22:44:22.690Z,5.17
2019-02-26T22:46:26.351Z,5.40
2019-02-26T22:48:30.042Z,7.23
2019-02-26T22:50:33.701Z,6.50
2019-02-26T22:52:37.498Z,8.47
2019-02-26T22:54:43.507Z,7.33
2019-02-26T22:56:46.551Z,8.10
2019-02-26T22:58:50.336Z,6.10
2019-02-26T23:00:58.849Z,9.50
2019-02-26T23:03:03.431Z,13.30
2019-02-26T23:05:07.483Z,7.23
2019-02-26T23:07:11.348Z,11.80
2019-02-26T23:09:17.886Z,8.13
2019-02-26T23:11:22.154Z,6.80
2019-02-26T23:13:26.049Z,7.50
2019-02-26T23:15:29.925Z,9.23
2019-02-26T23:17:33.588Z,9.73
2019-02-26T23:19:39.331Z,11.37
2019-02-26T23:21:43.271Z,10.97
2019-02-26T23:23:47.163Z,9.97
2019-02-26T23:25:50.820Z,12.53
2019-02-26T23:27:54.503Z,7.63
2019-02-26T23:29:58.183Z,8.03
2019-02-26T23:32:03.800Z,8.53
2019-02-26T23:34:07.366Z,8.60
2019-02-26T23:36:11.735Z,10.27
2019-02-26T23:38:15.395Z,5.50
2019-02-26T23:40:19.992Z,5.60
2019-02-26T23:42:23.639Z,5.00
2019-02-26T23:44:27.323Z,4.67
2019-02-26T23:46:30.978Z,6.30
2019-02-26T23:48:34.640Z,4.37
2019-02-26T23:50:38.327Z,6.00
2019-02-26T23:52:41.991Z,4.20
2019-02-26T23:54:45.771Z,5.97
2019-02-26T23:56:49.811Z,6.20
2019-02-26T23:58:54.804Z,5.53
